DTTF/GAF METAR and TAF weather

Enter ICAO airport designator
Station Type Date Time Source
DTTF METAR 2020/01/18 21:00 UTC NOAA

DTTF 182100Z 20005KT CAVOK 10/00 Q1027 NOSIG


Station Type Date Time Source
DTTF Decoded METAR 2020/01/18 21:00 UTC NOAA

Gafsa, Tunisia (DTTF) 34-25N 008-49E 314M
Jan 18, 2020 - 04:00 PM EST / 2020.01.18 2100 UTC
Wind: from the SSW (200 degrees) at 6 MPH (5 KT):0
Visibility: greater than 7 mile(s):0
Temperature: 50 F (10 C)
Dew Point: 32 F (0 C)
Relative Humidity: 49%
Pressure (altimeter): 30.33 in. Hg (1027 hPa)
ob: DTTF 182100Z 20005KT CAVOK 10/00 Q1027 NOSIG
cycle: 21

Station Type Date Time Source
DTTF TAF 2018/07/22 13:33 UTC NOAA

TAF DTTF 221200Z 2213/2322 22010KT 7000 NSC PROB30
TEMPO 2216/2220 4000 -TSRA FEW026CB

Example: see airport list